createdAt,value
2023-03-19T00:01:10.062Z,100837.00
2023-03-19T00:03:38.344Z,100813.00
2023-03-19T00:06:07.181Z,100834.00
2023-03-19T00:08:35.502Z,100843.00
2023-03-19T00:11:13.070Z,100818.00
2023-03-19T00:13:41.636Z,100852.00
2023-03-19T00:16:10.189Z,100824.00
2023-03-19T00:18:38.353Z,100844.00
2023-03-19T00:21:07.222Z,100855.00
2023-03-19T00:23:36.355Z,100805.00
2023-03-19T00:26:36.065Z,100863.00
2023-03-19T00:29:04.976Z,100857.00
2023-03-19T00:31:33.390Z,100835.00
2023-03-19T00:34:01.708Z,100868.00
2023-03-19T00:36:30.494Z,100853.00
2023-03-19T00:38:59.118Z,100851.00
2023-03-19T00:41:27.549Z,100864.00
2023-03-19T00:43:58.160Z,100869.00
2023-03-19T00:46:27.523Z,100868.00
2023-03-19T00:48:56.525Z,100844.00
2023-03-19T00:51:25.568Z,100881.00
2023-03-19T00:53:54.023Z,100843.00
2023-03-19T00:56:22.232Z,100831.00
2023-03-19T00:58:50.647Z,100862.00
2023-03-19T01:01:20.671Z,100853.00
2023-03-19T01:03:49.093Z,100784.00
2023-03-19T01:06:17.268Z,100881.00
2023-03-19T01:08:45.428Z,100854.00
2023-03-19T01:11:17.204Z,100853.00
2023-03-19T01:13:45.445Z,100878.00
2023-03-19T01:16:14.053Z,100869.00
2023-03-19T01:18:43.722Z,100873.00
2023-03-19T01:21:11.861Z,100864.00
2023-03-19T01:23:40.105Z,100881.00
2023-03-19T01:26:08.325Z,100872.00
2023-03-19T01:28:36.547Z,100876.00
2023-03-19T01:31:09.004Z,100878.00
2023-03-19T01:33:37.396Z,100877.00
2023-03-19T01:36:08.725Z,100866.00
2023-03-19T01:38:37.126Z,100864.00
2023-03-19T01:41:05.350Z,100867.00
2023-03-19T01:43:36.645Z,100855.00
2023-03-19T01:46:09.753Z,100834.00
2023-03-19T01:48:43.930Z,100851.00
2023-03-19T01:51:17.586Z,100837.00
2023-03-19T01:53:51.592Z,100832.00
2023-03-19T01:56:26.240Z,100857.00
2023-03-19T01:58:58.550Z,100856.00
2023-03-19T02:01:29.472Z,100857.00
2023-03-19T02:03:57.773Z,100801.00
2023-03-19T02:06:28.395Z,100827.00
2023-03-19T02:08:58.736Z,100822.00
2023-03-19T02:11:28.007Z,100854.00
2023-03-19T02:13:59.597Z,100828.00
2023-03-19T02:16:28.041Z,100824.00
2023-03-19T02:18:57.496Z,100859.00
2023-03-19T02:21:34.203Z,100806.00
2023-03-19T02:24:10.317Z,100820.00
2023-03-19T02:26:41.115Z,100836.00
2023-03-19T02:29:09.752Z,100787.00
2023-03-19T02:31:38.420Z,100870.00
2023-03-19T02:34:17.514Z,100851.00
2023-03-19T02:36:51.681Z,100791.00
2023-03-19T02:39:27.424Z,100833.00
2023-03-19T02:41:59.414Z,100836.00
2023-03-19T02:44:27.711Z,100834.00
2023-03-19T02:46:55.940Z,100826.00
2023-03-19T02:49:24.736Z,100844.00
2023-03-19T02:51:52.897Z,100843.00
2023-03-19T02:54:21.348Z,100820.00
2023-03-19T02:56:50.282Z,100821.00
2023-03-19T02:59:19.842Z,100836.00
2023-03-19T03:01:48.257Z,100869.00
2023-03-19T03:04:16.759Z,100858.00
2023-03-19T03:06:45.332Z,100825.00
2023-03-19T03:09:15.005Z,100816.00
2023-03-19T03:11:43.315Z,100846.00
2023-03-19T03:14:12.106Z,100883.00
2023-03-19T03:16:41.842Z,100876.00
2023-03-19T03:19:10.022Z,100866.00
2023-03-19T03:21:38.630Z,100863.00
2023-03-19T03:24:07.743Z,100874.00
2023-03-19T03:26:38.797Z,100820.00
2023-03-19T03:29:07.663Z,100851.00
2023-03-19T03:31:36.117Z,100908.00
2023-03-19T03:34:05.965Z,100876.00
2023-03-19T03:36:34.160Z,100901.00
2023-03-19T03:39:02.560Z,100898.00
2023-03-19T03:41:30.938Z,100873.00
2023-03-19T03:43:59.293Z,100863.00
2023-03-19T03:46:27.388Z,100854.00
2023-03-19T03:48:55.643Z,100839.00
2023-03-19T03:51:25.375Z,100898.00
2023-03-19T03:53:53.500Z,100864.00
2023-03-19T03:56:21.845Z,100896.00
2023-03-19T03:58:49.997Z,100866.00
2023-03-19T04:01:19.363Z,100908.00
2023-03-19T04:03:47.613Z,100886.00
2023-03-19T04:06:18.425Z,100909.00
2023-03-19T04:08:48.017Z,100868.00
2023-03-19T04:11:16.180Z,100902.00
2023-03-19T04:13:44.330Z,100871.00
2023-03-19T04:16:12.698Z,100913.00
2023-03-19T04:18:41.020Z,100891.00
2023-03-19T04:21:09.996Z,100891.00
2023-03-19T04:23:38.480Z,100888.00
2023-03-19T04:26:08.768Z,100877.00
2023-03-19T04:28:37.559Z,100862.00
2023-03-19T04:31:09.297Z,100902.00
2023-03-19T04:33:38.615Z,100871.00
2023-03-19T04:36:08.320Z,100904.00
2023-03-19T04:38:36.514Z,100868.00
2023-03-19T04:41:05.301Z,100882.00
2023-03-19T04:43:34.783Z,100886.00
2023-03-19T04:46:02.970Z,100886.00
2023-03-19T04:48:32.201Z,100861.00
2023-03-19T04:51:00.386Z,100883.00
2023-03-19T04:53:28.947Z,100881.00
2023-03-19T04:55:57.281Z,100876.00
2023-03-19T04:58:25.767Z,100879.00
2023-03-19T05:00:55.504Z,100873.00
2023-03-19T05:03:23.703Z,100887.00
2023-03-19T05:05:51.935Z,100918.00
2023-03-19T05:08:20.348Z,100901.00
2023-03-19T05:10:48.577Z,100922.00
2023-03-19T05:13:18.071Z,100872.00
2023-03-19T05:15:47.546Z,100924.00
2023-03-19T05:18:17.538Z,100887.00
2023-03-19T05:20:45.827Z,100906.00
2023-03-19T05:23:14.246Z,100895.00
2023-03-19T05:25:42.899Z,100900.00
2023-03-19T05:28:11.052Z,100911.00
2023-03-19T05:30:39.248Z,100912.00
2023-03-19T05:33:07.722Z,100915.00
2023-03-19T05:35:39.256Z,100928.00
2023-03-19T05:38:08.242Z,100893.00
2023-03-19T05:40:36.741Z,100876.00
2023-03-19T05:43:05.150Z,100912.00
2023-03-19T05:45:33.680Z,100920.00
2023-03-19T05:48:02.178Z,100907.00
2023-03-19T05:50:31.733Z,100919.00
2023-03-19T05:53:01.521Z,100902.00
2023-03-19T05:55:29.655Z,100947.00
2023-03-19T05:57:57.877Z,100917.00
2023-03-19T06:00:26.386Z,100920.00
2023-03-19T06:02:55.162Z,100891.00
2023-03-19T06:05:23.834Z,100947.00
2023-03-19T06:07:52.025Z,100915.00
2023-03-19T06:10:22.264Z,100932.00
2023-03-19T06:12:50.367Z,100917.00
2023-03-19T06:15:18.750Z,100920.00
2023-03-19T06:17:46.976Z,100947.00
2023-03-19T06:20:15.282Z,100894.00
2023-03-19T06:22:43.657Z,100955.00
2023-03-19T06:25:12.113Z,100901.00
2023-03-19T06:27:41.590Z,100932.00
2023-03-19T06:30:12.269Z,100955.00
2023-03-19T06:32:40.503Z,100971.00
2023-03-19T06:35:10.342Z,100972.00
2023-03-19T06:37:38.695Z,100963.00
2023-03-19T06:40:08.050Z,100949.00
2023-03-19T06:42:36.499Z,100918.00
2023-03-19T06:45:07.738Z,100940.00
2023-03-19T06:47:36.225Z,100961.00
2023-03-19T06:50:04.653Z,100953.00
2023-03-19T06:52:32.858Z,100986.00
2023-03-19T06:55:03.037Z,100987.00
2023-03-19T06:57:31.524Z,100974.00
2023-03-19T06:59:59.717Z,100998.00
2023-03-19T07:02:29.257Z,100976.00
2023-03-19T07:04:57.509Z,101011.00
2023-03-19T07:07:25.751Z,100999.00
2023-03-19T07:09:53.928Z,100973.00
2023-03-19T07:12:22.059Z,100974.00
2023-03-19T07:14:51.096Z,101000.00
2023-03-19T07:17:19.253Z,100971.00
2023-03-19T07:19:48.833Z,100992.00
2023-03-19T07:22:17.181Z,101010.00
2023-03-19T07:24:45.943Z,100999.00
2023-03-19T07:27:14.154Z,100998.00
2023-03-19T07:29:42.318Z,101028.00
2023-03-19T07:32:11.525Z,101033.00
2023-03-19T07:34:39.682Z,100981.00
2023-03-19T07:37:54.034Z,101038.00
2023-03-19T07:40:23.617Z,100994.00
2023-03-19T07:42:52.164Z,101053.00
2023-03-19T07:45:21.400Z,101056.00
2023-03-19T07:47:51.519Z,101055.00
2023-03-19T07:50:20.090Z,101020.00
2023-03-19T07:52:48.519Z,101061.00
2023-03-19T07:55:16.964Z,101044.00
2023-03-19T07:57:46.574Z,101055.00
2023-03-19T08:00:15.842Z,101054.00
2023-03-19T08:02:44.271Z,101042.00
2023-03-19T08:05:12.762Z,101063.00
2023-03-19T08:07:41.383Z,101058.00
2023-03-19T08:10:11.522Z,101025.00
2023-03-19T08:12:41.296Z,101046.00
2023-03-19T08:15:15.179Z,101053.00
2023-03-19T08:17:47.081Z,101058.00
2023-03-19T08:20:32.630Z,101086.00
2023-03-19T08:23:00.974Z,101089.00
2023-03-19T08:25:34.410Z,101082.00
2023-03-19T08:28:02.770Z,101102.00
2023-03-19T08:30:33.588Z,101062.00
2023-03-19T08:33:02.137Z,101052.00
2023-03-19T08:35:30.696Z,101104.00
2023-03-19T08:37:58.927Z,101104.00
2023-03-19T08:40:27.320Z,101092.00
2023-03-19T08:42:57.087Z,101101.00
2023-03-19T08:45:26.178Z,101105.00
2023-03-19T08:47:58.555Z,101111.00
2023-03-19T08:50:27.525Z,101080.00
2023-03-19T08:52:56.410Z,101113.00
2023-03-19T08:55:24.564Z,101099.00
2023-03-19T08:57:52.870Z,101072.00
2023-03-19T09:00:22.219Z,101106.00
2023-03-19T09:02:50.513Z,101117.00
2023-03-19T09:05:22.456Z,101120.00
2023-03-19T09:07:55.175Z,101099.00
2023-03-19T09:10:23.445Z,101104.00
2023-03-19T09:12:51.786Z,101130.00
2023-03-19T09:15:22.790Z,101095.00
2023-03-19T09:17:51.331Z,101101.00
2023-03-19T09:20:21.150Z,101138.00
2023-03-19T09:22:49.350Z,101129.00
2023-03-19T09:25:18.840Z,101096.00
2023-03-19T09:27:47.016Z,101157.00
2023-03-19T09:30:16.081Z,101156.00
2023-03-19T09:32:44.427Z,101132.00
2023-03-19T09:35:18.733Z,101158.00
2023-03-19T09:37:51.553Z,101158.00
2023-03-19T09:40:27.075Z,101148.00
2023-03-19T09:43:09.708Z,101173.00
